sensor_id;sensor_type;location;lat;lon;timestamp;P1;durP1;ratioP1;P2;durP2;ratioP2
45274;SDS011;31019;43.780;25.948;2023-04-23T00:03:07;67.50;;;61.03;;
45274;SDS011;31019;43.780;25.948;2023-04-23T00:05:42;60.88;;;54.78;;
45274;SDS011;31019;43.780;25.948;2023-04-23T00:08:34;98.07;;;83.68;;
45274;SDS011;31019;43.780;25.948;2023-04-23T00:11:54;74.10;;;66.10;;
45274;SDS011;31019;43.780;25.948;2023-04-23T00:24:47;61.80;;;55.47;;
45274;SDS011;31019;43.780;25.948;2023-04-23T00:27:44;60.70;;;54.88;;
45274;SDS011;31019;43.780;25.948;2023-04-23T00:30:45;61.85;;;55.40;;
45274;SDS011;31019;43.780;25.948;2023-04-23T00:33:29;61.08;;;54.67;;
45274;SDS011;31019;43.780;25.948;2023-04-23T00:36:22;53.70;;;48.28;;
45274;SDS011;31019;43.780;25.948;2023-04-23T00:39:35;59.97;;;53.95;;
45274;SDS011;31019;43.780;25.948;2023-04-23T00:42:18;61.55;;;52.97;;
45274;SDS011;31019;43.780;25.948;2023-04-23T00:45:19;58.22;;;51.90;;
45274;SDS011;31019;43.780;25.948;2023-04-23T00:47:59;65.63;;;59.13;;
45274;SDS011;31019;43.780;25.948;2023-04-23T00:50:42;62.15;;;55.47;;
45274;SDS011;31019;43.780;25.948;2023-04-23T00:53:39;56.60;;;50.60;;
45274;SDS011;31019;43.780;25.948;2023-04-23T00:59:35;57.08;;;49.17;;
45274;SDS011;31019;43.780;25.948;2023-04-23T01:02:26;58.97;;;52.80;;
45274;SDS011;31019;43.780;25.948;2023-04-23T01:05:15;62.78;;;55.53;;
45274;SDS011;31019;43.780;25.948;2023-04-23T01:11:34;55.20;;;49.40;;
45274;SDS011;31019;43.780;25.948;2023-04-23T01:17:54;52.03;;;46.35;;
45274;SDS011;31019;43.780;25.948;2023-04-23T01:27:26;56.90;;;51.17;;
45274;SDS011;31019;43.780;25.948;2023-04-23T01:30:17;59.78;;;53.65;;
45274;SDS011;31019;43.780;25.948;2023-04-23T01:33:20;65.35;;;50.50;;
45274;SDS011;31019;43.780;25.948;2023-04-23T01:36:22;58.60;;;49.42;;
45274;SDS011;31019;43.780;25.948;2023-04-23T01:39:03;57.08;;;49.30;;
45274;SDS011;31019;43.780;25.948;2023-04-23T01:48:34;51.85;;;46.45;;
45274;SDS011;31019;43.780;25.948;2023-04-23T01:54:28;53.17;;;46.92;;
45274;SDS011;31019;43.780;25.948;2023-04-23T02:00:23;54.00;;;48.08;;
45274;SDS011;31019;43.780;25.948;2023-04-23T02:06:31;58.80;;;52.67;;
45274;SDS011;31019;43.780;25.948;2023-04-23T02:11:51;52.53;;;46.83;;
45274;SDS011;31019;43.780;25.948;2023-04-23T02:12:56;53.30;;;47.72;;
45274;SDS011;31019;43.780;25.948;2023-04-23T02:15:47;52.03;;;46.35;;
45274;SDS011;31019;43.780;25.948;2023-04-23T02:22:14;56.58;;;50.58;;
45274;SDS011;31019;43.780;25.948;2023-04-23T02:25:04;67.32;;;57.15;;
45274;SDS011;31019;43.780;25.948;2023-04-23T02:28:04;67.43;;;55.47;;
45274;SDS011;31019;43.780;25.948;2023-04-23T02:31:00;71.80;;;56.97;;
45274;SDS011;31019;43.780;25.948;2023-04-23T02:33:47;69.47;;;60.47;;
45274;SDS011;31019;43.780;25.948;2023-04-23T02:36:42;59.33;;;47.50;;
45274;SDS011;31019;43.780;25.948;2023-04-23T02:39:46;53.28;;;47.55;;
45274;SDS011;31019;43.780;25.948;2023-04-23T02:42:48;57.53;;;48.05;;
45274;SDS011;31019;43.780;25.948;2023-04-23T02:45:52;49.95;;;44.63;;
45274;SDS011;31019;43.780;25.948;2023-04-23T02:49:01;56.92;;;50.28;;
45274;SDS011;31019;43.780;25.948;2023-04-23T02:55:10;54.38;;;48.10;;
45274;SDS011;31019;43.780;25.948;2023-04-23T02:58:15;55.92;;;49.92;;
45274;SDS011;31019;43.780;25.948;2023-04-23T03:01:17;50.95;;;44.28;;
45274;SDS011;31019;43.780;25.948;2023-04-23T03:04:11;52.33;;;43.95;;
45274;SDS011;31019;43.780;25.948;2023-04-23T03:07:12;50.80;;;45.33;;
45274;SDS011;31019;43.780;25.948;2023-04-23T03:10:10;54.92;;;48.15;;
45274;SDS011;31019;43.780;25.948;2023-04-23T03:12:57;51.83;;;46.25;;
45274;SDS011;31019;43.780;25.948;2023-04-23T03:15:49;51.03;;;44.80;;
45274;SDS011;31019;43.780;25.948;2023-04-23T03:18:45;50.80;;;45.55;;
45274;SDS011;31019;43.780;25.948;2023-04-23T03:21:12;47.03;;;42.15;;
45274;SDS011;31019;43.780;25.948;2023-04-23T03:23:39;47.75;;;42.83;;
45274;SDS011;31019;43.780;25.948;2023-04-23T03:26:18;45.83;;;41.13;;
45274;SDS011;31019;43.780;25.948;2023-04-23T03:32:22;52.35;;;43.03;;
45274;SDS011;31019;43.780;25.948;2023-04-23T03:35:15;63.22;;;50.85;;
45274;SDS011;31019;43.780;25.948;2023-04-23T03:38:12;57.83;;;50.85;;
45274;SDS011;31019;43.780;25.948;2023-04-23T03:41:10;65.25;;;52.30;;
45274;SDS011;31019;43.780;25.948;2023-04-23T03:44:05;63.53;;;51.42;;
45274;SDS011;31019;43.780;25.948;2023-04-23T03:46:55;55.00;;;49.05;;
45274;SDS011;31019;43.780;25.948;2023-04-23T03:49:59;50.20;;;45.20;;
45274;SDS011;31019;43.780;25.948;2023-04-23T03:52:57;51.40;;;46.13;;
45274;SDS011;31019;43.780;25.948;2023-04-23T03:55:42;48.85;;;44.00;;
45274;SDS011;31019;43.780;25.948;2023-04-23T03:58:47;50.20;;;45.45;;
45274;SDS011;31019;43.780;25.948;2023-04-23T04:01:23;52.45;;;47.42;;
45274;SDS011;31019;43.780;25.948;2023-04-23T04:04:30;56.33;;;50.60;;
45274;SDS011;31019;43.780;25.948;2023-04-23T04:07:16;50.50;;;45.30;;
45274;SDS011;31019;43.780;25.948;2023-04-23T04:10:17;54.45;;;49.25;;
45274;SDS011;31019;43.780;25.948;2023-04-23T04:13:28;51.30;;;46.10;;
45274;SDS011;31019;43.780;25.948;2023-04-23T04:16:09;51.28;;;46.10;;
45274;SDS011;31019;43.780;25.948;2023-04-23T04:19:20;48.05;;;42.65;;
45274;SDS011;31019;43.780;25.948;2023-04-23T04:25:51;51.83;;;46.90;;
45274;SDS011;31019;43.780;25.948;2023-04-23T04:28:41;47.17;;;42.25;;
45274;SDS011;31019;43.780;25.948;2023-04-23T04:31:53;48.72;;;43.80;;
45274;SDS011;31019;43.780;25.948;2023-04-23T04:34:45;52.97;;;47.90;;
45274;SDS011;31019;43.780;25.948;2023-04-23T04:37:56;53.80;;;48.30;;
45274;SDS011;31019;43.780;25.948;2023-04-23T04:46:42;60.70;;;54.65;;
45274;SDS011;31019;43.780;25.948;2023-04-23T04:49:49;62.25;;;56.00;;
45274;SDS011;31019;43.780;25.948;2023-04-23T04:52:38;63.63;;;57.35;;
45274;SDS011;31019;43.780;25.948;2023-04-23T04:55:45;63.53;;;57.35;;
45274;SDS011;31019;43.780;25.948;2023-04-23T04:59:00;58.30;;;52.38;;
45274;SDS011;31019;43.780;25.948;2023-04-23T05:02:20;58.20;;;52.58;;
45274;SDS011;31019;43.780;25.948;2023-04-23T05:08:47;62.53;;;56.40;;
45274;SDS011;31019;43.780;25.948;2023-04-23T05:11:48;60.95;;;55.53;;
45274;SDS011;31019;43.780;25.948;2023-04-23T05:14:50;61.60;;;56.30;;
45274;SDS011;31019;43.780;25.948;2023-04-23T05:17:17;58.60;;;53.45;;
45274;SDS011;31019;43.780;25.948;2023-04-23T05:19:44;59.80;;;53.92;;
45274;SDS011;31019;43.780;25.948;2023-04-23T05:22:10;59.70;;;54.33;;
45274;SDS011;31019;43.780;25.948;2023-04-23T05:27:20;53.15;;;48.25;;
45274;SDS011;31019;43.780;25.948;2023-04-23T05:29:47;57.08;;;51.95;;
45274;SDS011;31019;43.780;25.948;2023-04-23T05:35:50;57.80;;;52.63;;
45274;SDS011;31019;43.780;25.948;2023-04-23T05:38:17;53.55;;;48.58;;
45274;SDS011;31019;43.780;25.948;2023-04-23T05:40:45;51.10;;;46.25;;
45274;SDS011;31019;43.780;25.948;2023-04-23T05:43:24;50.80;;;46.30;;
45274;SDS011;31019;43.780;25.948;2023-04-23T05:46:00;59.05;;;53.85;;
45274;SDS011;31019;43.780;25.948;2023-04-23T05:49:25;62.60;;;57.35;;
45274;SDS011;31019;43.780;25.948;2023-04-23T05:51:37;62.22;;;56.70;;
45274;SDS011;31019;43.780;25.948;2023-04-23T05:54:06;57.90;;;53.05;;
45274;SDS011;31019;43.780;25.948;2023-04-23T06:05:51;52.00;;;47.75;;
45274;SDS011;31019;43.780;25.948;2023-04-23T06:08:50;53.38;;;49.05;;
45274;SDS011;31019;43.780;25.948;2023-04-23T06:11:45;48.33;;;44.42;;
45274;SDS011;31019;43.780;25.948;2023-04-23T06:17:52;45.85;;;42.00;;
45274;SDS011;31019;43.780;25.948;2023-04-23T06:20:52;56.55;;;51.92;;
45274;SDS011;31019;43.780;25.948;2023-04-23T06:23:46;38.47;;;35.47;;
45274;SDS011;31019;43.780;25.948;2023-04-23T06:26:58;36.38;;;33.25;;
45274;SDS011;31019;43.780;25.948;2023-04-23T06:33:01;34.90;;;32.00;;
45274;SDS011;31019;43.780;25.948;2023-04-23T06:35:43;35.97;;;33.17;;
45274;SDS011;31019;43.780;25.948;2023-04-23T06:40:01;28.58;;;26.08;;
45274;SDS011;31019;43.780;25.948;2023-04-23T06:41:56;28.10;;;25.67;;
45274;SDS011;31019;43.780;25.948;2023-04-23T06:44:52;27.13;;;24.73;;
45274;SDS011;31019;43.780;25.948;2023-04-23T06:47:36;24.70;;;22.70;;
45274;SDS011;31019;43.780;25.948;2023-04-23T06:53:03;21.65;;;19.42;;
45274;SDS011;31019;43.780;25.948;2023-04-23T06:55:30;22.20;;;20.08;;
45274;SDS011;31019;43.780;25.948;2023-04-23T06:57:58;22.83;;;20.67;;
45274;SDS011;31019;43.780;25.948;2023-04-23T07:00:25;22.35;;;19.98;;
45274;SDS011;31019;43.780;25.948;2023-04-23T07:02:51;21.25;;;19.08;;
45274;SDS011;31019;43.780;25.948;2023-04-23T07:05:18;20.90;;;18.95;;
45274;SDS011;31019;43.780;25.948;2023-04-23T07:07:46;22.70;;;20.60;;
45274;SDS011;31019;43.780;25.948;2023-04-23T07:10:17;23.10;;;20.73;;
45274;SDS011;31019;43.780;25.948;2023-04-23T07:12:44;22.77;;;20.38;;
45274;SDS011;31019;43.780;25.948;2023-04-23T07:15:11;21.98;;;19.67;;
45274;SDS011;31019;43.780;25.948;2023-04-23T07:17:43;20.95;;;18.70;;
45274;SDS011;31019;43.780;25.948;2023-04-23T07:20:15;23.15;;;20.80;;
45274;SDS011;31019;43.780;25.948;2023-04-23T07:22:53;21.98;;;20.15;;
45274;SDS011;31019;43.780;25.948;2023-04-23T07:25:40;22.45;;;20.30;;
45274;SDS011;31019;43.780;25.948;2023-04-23T07:28:26;21.55;;;19.85;;
45274;SDS011;31019;43.780;25.948;2023-04-23T07:31:00;21.90;;;19.63;;
45274;SDS011;31019;43.780;25.948;2023-04-23T07:33:43;21.30;;;19.25;;
45274;SDS011;31019;43.780;25.948;2023-04-23T07:36:10;21.40;;;19.27;;
45274;SDS011;31019;43.780;25.948;2023-04-23T07:38:41;23.45;;;19.52;;
45274;SDS011;31019;43.780;25.948;2023-04-23T07:41:08;22.35;;;20.35;;
45274;SDS011;31019;43.780;25.948;2023-04-23T07:43:35;22.98;;;20.88;;
45274;SDS011;31019;43.780;25.948;2023-04-23T07:46:01;23.13;;;20.85;;
45274;SDS011;31019;43.780;25.948;2023-04-23T07:48:29;24.20;;;21.90;;
45274;SDS011;31019;43.780;25.948;2023-04-23T07:50:56;23.00;;;20.65;;
45274;SDS011;31019;43.780;25.948;2023-04-23T07:53:23;22.13;;;20.00;;
45274;SDS011;31019;43.780;25.948;2023-04-23T07:55:54;22.13;;;20.20;;
45274;SDS011;31019;43.780;25.948;2023-04-23T07:58:21;23.20;;;21.13;;
45274;SDS011;31019;43.780;25.948;2023-04-23T08:00:48;24.00;;;21.60;;
45274;SDS011;31019;43.780;25.948;2023-04-23T08:03:15;21.73;;;19.83;;
45274;SDS011;31019;43.780;25.948;2023-04-23T08:05:41;21.67;;;19.55;;
45274;SDS011;31019;43.780;25.948;2023-04-23T08:08:10;21.10;;;19.27;;
45274;SDS011;31019;43.780;25.948;2023-04-23T08:10:39;23.17;;;20.80;;
45274;SDS011;31019;43.780;25.948;2023-04-23T08:13:07;22.00;;;19.85;;
45274;SDS011;31019;43.780;25.948;2023-04-23T08:15:34;22.58;;;20.55;;
45274;SDS011;31019;43.780;25.948;2023-04-23T08:24:32;23.15;;;21.23;;
45274;SDS011;31019;43.780;25.948;2023-04-23T08:26:58;22.80;;;20.75;;
45274;SDS011;31019;43.780;25.948;2023-04-23T08:29:27;24.15;;;22.20;;
45274;SDS011;31019;43.780;25.948;2023-04-23T08:31:54;24.80;;;22.95;;
45274;SDS011;31019;43.780;25.948;2023-04-23T08:34:21;23.77;;;21.75;;
45274;SDS011;31019;43.780;25.948;2023-04-23T08:36:48;24.85;;;22.65;;
45274;SDS011;31019;43.780;25.948;2023-04-23T08:39:14;25.35;;;23.20;;
45274;SDS011;31019;43.780;25.948;2023-04-23T08:41:41;23.13;;;21.08;;
45274;SDS011;31019;43.780;25.948;2023-04-23T08:47:34;24.58;;;21.95;;
45274;SDS011;31019;43.780;25.948;2023-04-23T08:50:07;23.48;;;21.40;;
45274;SDS011;31019;43.780;25.948;2023-04-23T08:52:35;24.33;;;22.38;;
45274;SDS011;31019;43.780;25.948;2023-04-23T08:55:08;22.88;;;20.77;;
45274;SDS011;31019;43.780;25.948;2023-04-23T08:57:42;24.33;;;21.92;;
45274;SDS011;31019;43.780;25.948;2023-04-23T09:00:13;23.30;;;21.05;;
45274;SDS011;31019;43.780;25.948;2023-04-23T09:02:44;23.38;;;21.45;;
45274;SDS011;31019;43.780;25.948;2023-04-23T09:05:13;23.13;;;21.17;;
45274;SDS011;31019;43.780;25.948;2023-04-23T09:11:27;25.25;;;23.00;;
45274;SDS011;31019;43.780;25.948;2023-04-23T09:13:55;25.20;;;22.92;;
45274;SDS011;31019;43.780;25.948;2023-04-23T09:16:28;24.38;;;22.05;;
45274;SDS011;31019;43.780;25.948;2023-04-23T09:19:03;23.55;;;21.33;;
45274;SDS011;31019;43.780;25.948;2023-04-23T09:24:41;24.08;;;21.75;;
45274;SDS011;31019;43.780;25.948;2023-04-23T09:27:38;23.00;;;20.75;;
45274;SDS011;31019;43.780;25.948;2023-04-23T09:30:26;22.63;;;20.70;;
45274;SDS011;31019;43.780;25.948;2023-04-23T09:33:20;23.75;;;21.83;;
45274;SDS011;31019;43.780;25.948;2023-04-23T09:39:35;24.20;;;21.83;;
45274;SDS011;31019;43.780;25.948;2023-04-23T09:42:02;24.73;;;21.95;;
45274;SDS011;31019;43.780;25.948;2023-04-23T09:47:58;24.60;;;22.20;;
45274;SDS011;31019;43.780;25.948;2023-04-23T09:51:03;23.55;;;21.58;;
45274;SDS011;31019;43.780;25.948;2023-04-23T09:53:39;26.02;;;23.73;;
45274;SDS011;31019;43.780;25.948;2023-04-23T09:59:33;24.75;;;22.40;;
45274;SDS011;31019;43.780;25.948;2023-04-23T10:05:53;24.73;;;22.38;;
45274;SDS011;31019;43.780;25.948;2023-04-23T10:15:07;29.02;;;26.40;;
45274;SDS011;31019;43.780;25.948;2023-04-23T10:17:44;24.88;;;22.67;;
45274;SDS011;31019;43.780;25.948;2023-04-23T10:21:01;25.55;;;23.08;;
45274;SDS011;31019;43.780;25.948;2023-04-23T10:24:00;24.60;;;22.20;;
45274;SDS011;31019;43.780;25.948;2023-04-23T10:26:56;26.98;;;24.58;;
45274;SDS011;31019;43.780;25.948;2023-04-23T10:38:42;25.00;;;22.80;;
45274;SDS011;31019;43.780;25.948;2023-04-23T10:41:41;24.63;;;22.17;;
45274;SDS011;31019;43.780;25.948;2023-04-23T10:44:20;25.70;;;23.40;;
45274;SDS011;31019;43.780;25.948;2023-04-23T10:50:52;25.40;;;23.00;;
45274;SDS011;31019;43.780;25.948;2023-04-23T10:53:46;24.17;;;22.05;;
45274;SDS011;31019;43.780;25.948;2023-04-23T10:56:56;24.67;;;22.30;;
45274;SDS011;31019;43.780;25.948;2023-04-23T10:59:54;24.60;;;22.52;;
45274;SDS011;31019;43.780;25.948;2023-04-23T11:02:56;24.50;;;22.60;;
45274;SDS011;31019;43.780;25.948;2023-04-23T11:09:58;23.52;;;21.33;;
45274;SDS011;31019;43.780;25.948;2023-04-23T11:12:54;22.63;;;20.73;;
45274;SDS011;31019;43.780;25.948;2023-04-23T11:15:29;25.00;;;22.65;;
45274;SDS011;31019;43.780;25.948;2023-04-23T11:18:20;25.00;;;22.73;;
45274;SDS011;31019;43.780;25.948;2023-04-23T11:21:09;27.10;;;25.20;;
45274;SDS011;31019;43.780;25.948;2023-04-23T11:27:21;25.00;;;23.00;;
45274;SDS011;31019;43.780;25.948;2023-04-23T11:30:04;23.98;;;21.75;;
45274;SDS011;31019;43.780;25.948;2023-04-23T11:33:04;23.90;;;21.63;;
45274;SDS011;31019;43.780;25.948;2023-04-23T11:35:46;25.33;;;23.20;;
45274;SDS011;31019;43.780;25.948;2023-04-23T11:38:35;22.77;;;20.80;;
45274;SDS011;31019;43.780;25.948;2023-04-23T11:41:52;23.52;;;21.52;;
45274;SDS011;31019;43.780;25.948;2023-04-23T11:44:51;25.45;;;23.02;;
45274;SDS011;31019;43.780;25.948;2023-04-23T11:47:57;22.43;;;20.50;;
45274;SDS011;31019;43.780;25.948;2023-04-23T11:50:55;23.38;;;21.45;;
45274;SDS011;31019;43.780;25.948;2023-04-23T11:54:16;23.55;;;21.50;;
45274;SDS011;31019;43.780;25.948;2023-04-23T11:57:16;22.60;;;20.75;;
45274;SDS011;31019;43.780;25.948;2023-04-23T12:00:15;23.70;;;21.30;;
45274;SDS011;31019;43.780;25.948;2023-04-23T12:03:04;24.73;;;22.70;;
45274;SDS011;31019;43.780;25.948;2023-04-23T12:06:15;23.95;;;21.95;;
45274;SDS011;31019;43.780;25.948;2023-04-23T12:09:15;25.65;;;23.55;;
45274;SDS011;31019;43.780;25.948;2023-04-23T12:12:31;24.48;;;22.42;;
45274;SDS011;31019;43.780;25.948;2023-04-23T12:15:42;24.55;;;22.40;;
45274;SDS011;31019;43.780;25.948;2023-04-23T12:18:46;22.48;;;20.58;;
45274;SDS011;31019;43.780;25.948;2023-04-23T12:21:30;23.85;;;21.63;;
45274;SDS011;31019;43.780;25.948;2023-04-23T12:24:44;23.85;;;21.95;;
45274;SDS011;31019;43.780;25.948;2023-04-23T12:27:49;22.20;;;20.15;;
45274;SDS011;31019;43.780;25.948;2023-04-23T12:32:03;23.58;;;21.35;;
45274;SDS011;31019;43.780;25.948;2023-04-23T12:34:07;22.52;;;20.88;;
45274;SDS011;31019;43.780;25.948;2023-04-23T12:37:05;22.15;;;20.30;;
45274;SDS011;31019;43.780;25.948;2023-04-23T12:40:07;23.40;;;21.35;;
45274;SDS011;31019;43.780;25.948;2023-04-23T12:43:08;22.67;;;20.92;;
45274;SDS011;31019;43.780;25.948;2023-04-23T12:46:06;23.20;;;21.05;;
45274;SDS011;31019;43.780;25.948;2023-04-23T12:48:47;23.90;;;22.00;;
45274;SDS011;31019;43.780;25.948;2023-04-23T12:52:09;22.52;;;20.73;;
45274;SDS011;31019;43.780;25.948;2023-04-23T12:54:58;24.65;;;22.45;;
45274;SDS011;31019;43.780;25.948;2023-04-23T13:04:42;28.00;;;25.90;;
45274;SDS011;31019;43.780;25.948;2023-04-23T13:07:44;26.65;;;24.55;;
45274;SDS011;31019;43.780;25.948;2023-04-23T13:11:01;22.77;;;20.80;;
45274;SDS011;31019;43.780;25.948;2023-04-23T13:13:45;28.77;;;26.02;;
45274;SDS011;31019;43.780;25.948;2023-04-23T13:16:52;23.08;;;21.23;;
45274;SDS011;31019;43.780;25.948;2023-04-23T13:19:34;24.40;;;21.95;;
45274;SDS011;31019;43.780;25.948;2023-04-23T13:22:21;28.88;;;22.10;;
45274;SDS011;31019;43.780;25.948;2023-04-23T13:25:16;23.35;;;20.75;;
45274;SDS011;31019;43.780;25.948;2023-04-23T13:28:16;22.98;;;20.50;;
45274;SDS011;31019;43.780;25.948;2023-04-23T13:31:21;22.98;;;21.08;;
45274;SDS011;31019;43.780;25.948;2023-04-23T13:34:03;22.45;;;20.55;;
45274;SDS011;31019;43.780;25.948;2023-04-23T13:36:49;28.05;;;22.20;;
45274;SDS011;31019;43.780;25.948;2023-04-23T13:42:47;22.93;;;20.77;;
45274;SDS011;31019;43.780;25.948;2023-04-23T13:45:17;43.13;;;36.72;;
45274;SDS011;31019;43.780;25.948;2023-04-23T13:48:23;25.40;;;23.30;;
45274;SDS011;31019;43.780;25.948;2023-04-23T13:51:00;25.02;;;22.92;;
45274;SDS011;31019;43.780;25.948;2023-04-23T13:53:46;23.00;;;20.85;;
45274;SDS011;31019;43.780;25.948;2023-04-23T13:59:23;23.92;;;21.90;;
45274;SDS011;31019;43.780;25.948;2023-04-23T14:01:58;23.50;;;21.40;;
45274;SDS011;31019;43.780;25.948;2023-04-23T14:04:40;23.52;;;21.52;;
45274;SDS011;31019;43.780;25.948;2023-04-23T14:07:38;25.55;;;23.05;;
45274;SDS011;31019;43.780;25.948;2023-04-23T14:16:29;21.73;;;19.95;;
45274;SDS011;31019;43.780;25.948;2023-04-23T14:23:03;22.73;;;20.73;;
45274;SDS011;31019;43.780;25.948;2023-04-23T14:26:20;23.08;;;21.17;;
45274;SDS011;31019;43.780;25.948;2023-04-23T14:29:28;24.02;;;21.90;;
45274;SDS011;31019;43.780;25.948;2023-04-23T14:32:19;24.52;;;22.25;;
45274;SDS011;31019;43.780;25.948;2023-04-23T14:34:58;23.25;;;21.35;;
45274;SDS011;31019;43.780;25.948;2023-04-23T14:37:48;25.02;;;22.90;;
45274;SDS011;31019;43.780;25.948;2023-04-23T14:40:38;25.88;;;23.40;;
45274;SDS011;31019;43.780;25.948;2023-04-23T14:43:26;26.25;;;23.95;;
45274;SDS011;31019;43.780;25.948;2023-04-23T14:46:26;26.88;;;24.27;;
45274;SDS011;31019;43.780;25.948;2023-04-23T14:52:25;24.88;;;22.98;;
45274;SDS011;31019;43.780;25.948;2023-04-23T14:55:08;26.10;;;23.50;;
45274;SDS011;31019;43.780;25.948;2023-04-23T15:01:18;25.13;;;23.23;;
45274;SDS011;31019;43.780;25.948;2023-04-23T15:04:12;25.52;;;23.33;;
45274;SDS011;31019;43.780;25.948;2023-04-23T15:07:12;24.13;;;21.90;;
45274;SDS011;31019;43.780;25.948;2023-04-23T15:10:04;24.13;;;22.05;;
45274;SDS011;31019;43.780;25.948;2023-04-23T15:13:00;23.90;;;21.73;;
45274;SDS011;31019;43.780;25.948;2023-04-23T15:19:17;24.25;;;21.80;;
45274;SDS011;31019;43.780;25.948;2023-04-23T15:22:02;22.73;;;20.92;;
45274;SDS011;31019;43.780;25.948;2023-04-23T15:25:00;23.50;;;21.50;;
45274;SDS011;31019;43.780;25.948;2023-04-23T15:34:28;23.35;;;21.45;;
45274;SDS011;31019;43.780;25.948;2023-04-23T15:44:04;23.55;;;21.55;;
45274;SDS011;31019;43.780;25.948;2023-04-23T15:47:03;24.80;;;22.38;;
45274;SDS011;31019;43.780;25.948;2023-04-23T15:49:39;22.52;;;20.52;;
45274;SDS011;31019;43.780;25.948;2023-04-23T15:52:17;22.65;;;20.63;;
45274;SDS011;31019;43.780;25.948;2023-04-23T15:55:29;21.45;;;19.75;;
45274;SDS011;31019;43.780;25.948;2023-04-23T16:04:26;21.75;;;19.85;;
45274;SDS011;31019;43.780;25.948;2023-04-23T16:07:15;22.88;;;20.77;;
45274;SDS011;31019;43.780;25.948;2023-04-23T16:10:03;24.10;;;22.23;;
45274;SDS011;31019;43.780;25.948;2023-04-23T16:12:47;23.17;;;21.42;;
45274;SDS011;31019;43.780;25.948;2023-04-23T16:15:46;22.35;;;20.35;;
45274;SDS011;31019;43.780;25.948;2023-04-23T16:18:31;22.25;;;20.08;;
45274;SDS011;31019;43.780;25.948;2023-04-23T16:21:10;29.73;;;22.05;;
45274;SDS011;31019;43.780;25.948;2023-04-23T16:23:58;23.42;;;21.00;;
45274;SDS011;31019;43.780;25.948;2023-04-23T16:27:01;22.40;;;20.27;;
45274;SDS011;31019;43.780;25.948;2023-04-23T16:33:47;35.42;;;25.08;;
45274;SDS011;31019;43.780;25.948;2023-04-23T16:36:33;26.42;;;22.02;;
45274;SDS011;31019;43.780;25.948;2023-04-23T16:39:51;23.10;;;20.90;;
45274;SDS011;31019;43.780;25.948;2023-04-23T16:42:47;22.83;;;20.80;;
45274;SDS011;31019;43.780;25.948;2023-04-23T16:46:11;29.85;;;22.17;;
45274;SDS011;31019;43.780;25.948;2023-04-23T16:52:27;23.42;;;21.48;;
45274;SDS011;31019;43.780;25.948;2023-04-23T16:55:29;28.65;;;23.27;;
45274;SDS011;31019;43.780;25.948;2023-04-23T16:58:19;25.50;;;23.40;;
45274;SDS011;31019;43.780;25.948;2023-04-23T17:01:08;27.42;;;24.67;;
45274;SDS011;31019;43.780;25.948;2023-04-23T17:04:03;29.85;;;26.65;;
45274;SDS011;31019;43.780;25.948;2023-04-23T17:06:54;28.70;;;25.70;;
45274;SDS011;31019;43.780;25.948;2023-04-23T17:09:43;30.10;;;26.98;;
45274;SDS011;31019;43.780;25.948;2023-04-23T17:15:17;74.47;;;42.78;;
45274;SDS011;31019;43.780;25.948;2023-04-23T17:18:01;37.40;;;28.63;;
45274;SDS011;31019;43.780;25.948;2023-04-23T17:20:47;27.02;;;24.60;;
45274;SDS011;31019;43.780;25.948;2023-04-23T17:24:04;25.60;;;23.05;;
45274;SDS011;31019;43.780;25.948;2023-04-23T17:26:42;25.77;;;23.05;;
45274;SDS011;31019;43.780;25.948;2023-04-23T17:29:23;26.25;;;23.50;;
45274;SDS011;31019;43.780;25.948;2023-04-23T17:32:21;22.75;;;20.58;;
45274;SDS011;31019;43.780;25.948;2023-04-23T17:34:59;22.75;;;20.88;;
45274;SDS011;31019;43.780;25.948;2023-04-23T17:37:48;24.10;;;21.83;;
45274;SDS011;31019;43.780;25.948;2023-04-23T17:57:08;29.42;;;25.80;;
45274;SDS011;31019;43.780;25.948;2023-04-23T18:00:34;26.10;;;23.17;;
45274;SDS011;31019;43.780;25.948;2023-04-23T18:12:50;24.90;;;22.38;;
45274;SDS011;31019;43.780;25.948;2023-04-23T18:21:36;25.92;;;23.70;;
45274;SDS011;31019;43.780;25.948;2023-04-23T18:24:22;24.67;;;22.60;;
45274;SDS011;31019;43.780;25.948;2023-04-23T18:30:33;23.20;;;21.00;;
45274;SDS011;31019;43.780;25.948;2023-04-23T18:33:28;24.77;;;22.53;;
45274;SDS011;31019;43.780;25.948;2023-04-23T18:36:18;29.35;;;26.75;;
45274;SDS011;31019;43.780;25.948;2023-04-23T18:39:32;45.67;;;40.75;;
45274;SDS011;31019;43.780;25.948;2023-04-23T18:42:25;42.35;;;34.83;;
45274;SDS011;31019;43.780;25.948;2023-04-23T18:45:47;43.45;;;38.30;;
45274;SDS011;31019;43.780;25.948;2023-04-23T18:49:03;28.88;;;26.15;;
45274;SDS011;31019;43.780;25.948;2023-04-23T18:51:49;25.75;;;23.70;;
45274;SDS011;31019;43.780;25.948;2023-04-23T18:54:31;45.03;;;34.78;;
45274;SDS011;31019;43.780;25.948;2023-04-23T18:57:17;43.58;;;32.00;;
45274;SDS011;31019;43.780;25.948;2023-04-23T19:00:26;135.73;;;86.57;;
45274;SDS011;31019;43.780;25.948;2023-04-23T19:03:41;39.33;;;31.42;;
45274;SDS011;31019;43.780;25.948;2023-04-23T19:06:34;30.58;;;26.83;;
45274;SDS011;31019;43.780;25.948;2023-04-23T19:09:39;123.38;;;63.08;;
45274;SDS011;31019;43.780;25.948;2023-04-23T19:18:52;25.80;;;23.08;;
45274;SDS011;31019;43.780;25.948;2023-04-23T19:21:37;38.83;;;28.80;;
45274;SDS011;31019;43.780;25.948;2023-04-23T19:24:21;271.60;;;107.57;;
45274;SDS011;31019;43.780;25.948;2023-04-23T19:27:01;235.75;;;89.65;;
45274;SDS011;31019;43.780;25.948;2023-04-23T19:29:54;296.40;;;111.60;;
45274;SDS011;31019;43.780;25.948;2023-04-23T19:32:54;212.60;;;84.68;;
45274;SDS011;31019;43.780;25.948;2023-04-23T19:35:46;30.40;;;27.27;;
45274;SDS011;31019;43.780;25.948;2023-04-23T19:38:46;85.85;;;42.53;;
45274;SDS011;31019;43.780;25.948;2023-04-23T19:41:22;27.40;;;25.02;;
45274;SDS011;31019;43.780;25.948;2023-04-23T19:44:02;27.05;;;24.67;;
45274;SDS011;31019;43.780;25.948;2023-04-23T19:47:06;70.82;;;38.13;;
45274;SDS011;31019;43.780;25.948;2023-04-23T19:50:00;31.50;;;27.42;;
45274;SDS011;31019;43.780;25.948;2023-04-23T19:53:18;27.98;;;25.98;;
45274;SDS011;31019;43.780;25.948;2023-04-23T19:56:15;30.63;;;28.45;;
45274;SDS011;31019;43.780;25.948;2023-04-23T19:59:12;30.92;;;28.60;;
45274;SDS011;31019;43.780;25.948;2023-04-23T20:02:02;28.30;;;26.10;;
45274;SDS011;31019;43.780;25.948;2023-04-23T20:08:04;28.88;;;26.88;;
45274;SDS011;31019;43.780;25.948;2023-04-23T20:11:17;32.25;;;29.45;;
45274;SDS011;31019;43.780;25.948;2023-04-23T20:14:07;28.83;;;26.20;;
45274;SDS011;31019;43.780;25.948;2023-04-23T20:17:05;29.40;;;27.23;;
45274;SDS011;31019;43.780;25.948;2023-04-23T20:19:53;28.88;;;25.77;;
45274;SDS011;31019;43.780;25.948;2023-04-23T20:23:01;29.70;;;27.25;;
45274;SDS011;31019;43.780;25.948;2023-04-23T20:26:05;31.27;;;28.48;;
45274;SDS011;31019;43.780;25.948;2023-04-23T20:32:11;35.13;;;32.22;;
45274;SDS011;31019;43.780;25.948;2023-04-23T20:37:58;32.47;;;29.60;;
45274;SDS011;31019;43.780;25.948;2023-04-23T20:40:46;38.10;;;35.10;;